Aérodrome :
LOGIN :

S'inscrire | Disclaimer

   EN    FR    IT 

 










Légende :    VFR   VFR Marginal   IFR   IFR Intensif   IFR Très Intensif
Visi : 
Plafond : 
>= 8 km
>= 3000ft
5 à 8 km
1000 à 3000 ft
1500m à 5 km
500 à 1000 ft
800 à 1500m
200 à 500 ft
< 800m
< 200 ft
Symboles :   Orages  Brouillard  Fortes neiges  Fortes précipitations  Vent > 20 kt
SIGMETs :   Divers  Orages  Givrage  Turbulence  Onde Orograph.  Cendres Volcan.






- Altitude de l'aérodrome : 87 ft
- Code IATA : FSC


LFKF - Figari

DERNIER METAR :
  • 091030Z AUTO 26003KT 200V310 9999 BKN052/// OVC062/// ///TCU 14/09 Q1011 TEMPO SHRA

METARs EXPIRÉS :
  • 091000Z AUTO 27005KT 230V310 9999 BKN054/// OVC070/// ///TCU 14/10 Q1011 TEMPO SHRA
  • 090930Z AUTO 28005KT 230V310 9999 -RA BKN050/// OVC066/// ///TCU 13/10 Q1011 TEMPO SHRA
  • 090900Z AUTO 34004KT 310V030 9999 OVC058 13/08 Q1011 TEMPO SHRA FEW016 BKN027 FEW033TCU
  • 090830Z AUTO 04004KT 340V070 9999 OVC062/// ///TCU 13/08 Q1011 BECMG BKN045 BKN055
  • 090800Z AUTO 05005KT 350V090 9999 OVC064 12/08 Q1011 NOSIG

TAF TAF LFKF
Valide du 09 à 09h jusqu'au 10 à 09h UTC


090800Z 0909/1009 VRB04KT 9999 FEW035 BKN060
TEMPO 0909/0922 SHRA FEW016 BKN027 FEW033TCU



MET'MAP, la Météo Aéronautique d'un coup d'oeil ! - Copyright ORBIFLY Décembre 2007 - Disclaimer

ORBIFLY MET'MAP TEAM :

Programmation & Développement : Alexandra Zaïnal
Sur une idée originale de : Baudouin d'Aumeries
Assistance à la programmation : Marc-Olivier Méhu
Soutien technique & logistique : Manuel Goepfert

Contact : metmap@orbifly.com




SOURCES & CREDITS :

   NOAA